Time;durP1;ratioP1;P1;durP2;ratioP2;P2;SDS_P1;SDS_P2;PMS_P1;PMS_P2;Temp;Humidity;BMP_temperature;BMP_pressure;BME280_temperature;BME280_humidity;BME280_pressure;Samples;Min_cycle;Max_cycle;Signal;HPM_P1;HPM_P2
2022/05/27 00:00:27;;;;;;;;;;;;;;;27.73;37.35;94923.72;4935173;28;7340;-60
2022/05/27 00:02:55;;;;;;;;;;;;;;;27.71;37.40;94923.50;4948770;28;7265;-60
2022/05/27 00:05:31;;;;;;;;;;;;;;;27.72;37.27;94914.69;4942411;28;9878;-60
2022/05/27 00:08:11;;;;;;;;;;;;;;;27.72;37.80;94922.22;4933408;28;9084;-60
2022/05/27 00:10:39;;;;;;;;;;;;;;;27.71;37.85;94923.50;4945550;28;7029;-60
2022/05/27 00:13:06;;;;;;;;;;;;;;;27.71;37.36;94918.69;4944038;28;9120;-60
2022/05/27 00:15:32;;;;;;;;;;;;;;;27.71;37.48;94912.44;4935863;28;7248;-60
2022/05/27 00:18:09;;;;;;;;;;;;;;;27.71;37.54;94904.88;4936574;28;9073;-61
2022/05/27 00:20:49;;;;;;;;;;;;;;;27.69;37.36;94890.09;4926892;28;7507;-60
2022/05/27 00:23:17;;;;;;;;;;;;;;;27.68;37.90;94894.09;4928059;28;7915;-60
2022/05/27 00:25:45;;;;;;;;;;;;;;;27.68;37.51;94899.63;4924504;28;7253;-60
2022/05/27 00:28:13;;;;;;;;;;;;;;;27.64;37.41;94903.41;4967211;28;7316;-60
2022/05/27 00:30:59;;;;;;;;;;;;;;;27.66;37.18;94896.63;5023474;28;9094;-60
2022/05/27 00:33:25;;;;;;;;;;;;;;;27.66;37.38;94904.94;5000678;28;7009;-60
2022/05/27 00:35:57;;;;;;;;;;;;;;;27.66;37.26;94899.41;5021018;28;8956;-60
2022/05/27 00:38:26;;;;;;;;;;;;;;;27.66;37.40;94889.09;5003538;28;7366;-60
2022/05/27 00:40:55;;;;;;;;;;;;;;;27.64;37.11;94891.63;5016039;28;7419;-61
2022/05/27 00:43:23;;;;;;;;;;;;;;;27.63;37.07;94896.41;5024515;28;7306;-60
2022/05/27 00:46:03;;;;;;;;;;;;;;;27.62;37.36;94889.34;5005896;28;6936;-60
2022/05/27 00:48:34;;;;;;;;;;;;;;;27.62;37.53;94886.59;5016155;28;7608;-61
2022/05/27 00:51:09;;;;;;;;;;;;;;;27.61;37.70;94892.63;5018776;28;9057;-60
2022/05/27 00:53:42;;;;;;;;;;;;;;;27.61;37.76;94882.34;5018458;28;7262;-60
2022/05/27 00:56:13;;;;;;;;;;;;;;;27.60;37.21;94880.84;5006259;28;9086;-60
2022/05/27 00:58:57;;;;;;;;;;;;;;;27.60;37.07;94889.13;5011489;28;8810;-60
2022/05/27 01:01:49;;;;;;;;;;;;;;;27.59;37.37;94876.59;5025785;28;9329;-60
2022/05/27 01:04:28;;;;;;;;;;;;;;;27.58;37.73;94882.59;4928696;28;9567;-60
2022/05/27 01:07:05;;;;;;;;;;;;;;;27.55;37.75;94867.06;4934074;28;7240;-60
2022/05/27 01:09:38;;;;;;;;;;;;;;;27.58;37.43;94871.53;4933152;28;7935;-60
2022/05/27 01:12:22;;;;;;;;;;;;;;;27.58;37.17;94877.06;4933181;28;7080;-60
2022/05/27 01:15:35;;;;;;;;;;;;;;;27.56;37.70;94880.34;4933563;28;8625;-60
2022/05/27 01:21:41;;;;;;;;;;;;;;;27.57;37.07;94875.59;4912415;29;7083;-60
2022/05/27 01:24:47;;;;;;;;;;;;;;;27.56;37.65;94883.13;4910794;29;7238;-60
2022/05/27 01:27:33;;;;;;;;;;;;;;;27.57;37.69;94887.41;4892664;29;9103;-60
2022/05/27 01:30:25;;;;;;;;;;;;;;;27.56;37.10;94874.84;4912727;29;9069;-60
2022/05/27 01:33:20;;;;;;;;;;;;;;;27.57;37.79;94886.63;4913466;29;7455;-60
2022/05/27 01:36:27;;;;;;;;;;;;;;;27.55;37.78;94886.41;4896476;29;7453;-60
2022/05/27 01:39:05;;;;;;;;;;;;;;;27.55;37.47;94878.88;4823765;29;7137;-60
2022/05/27 01:41:43;;;;;;;;;;;;;;;27.53;37.30;94878.59;4851042;29;8734;-60
2022/05/27 01:44:31;;;;;;;;;;;;;;;27.53;37.45;94873.09;4833222;29;7823;-60
2022/05/27 01:47:04;;;;;;;;;;;;;;;27.53;37.84;94873.09;4851483;29;7226;-60
2022/05/27 01:49:37;;;;;;;;;;;;;;;27.52;37.81;94874.34;4856216;29;9626;-60
2022/05/27 01:52:32;;;;;;;;;;;;;;;27.52;37.75;94877.13;4842585;29;9303;-60
2022/05/27 01:55:11;;;;;;;;;;;;;;;27.52;37.64;94879.13;4932434;28;7829;-60
2022/05/27 01:58:22;;;;;;;;;;;;;;;27.51;37.84;94872.13;4944907;28;9147;-60
2022/05/27 02:00:50;;;;;;;;;;;;;;;27.49;37.50;94869.84;4939914;28;9167;-60
2022/05/27 02:03:30;;;;;;;;;;;;;;;27.49;37.20;94869.13;4933251;28;8735;-60
2022/05/27 02:06:10;;;;;;;;;;;;;;;27.49;37.78;94880.91;4950082;28;7677;-60
2022/05/27 02:08:48;;;;;;;;;;;;;;;27.49;37.51;94878.13;4931577;28;8098;-60
2022/05/27 02:11:20;;;;;;;;;;;;;;;27.49;37.76;94874.66;4947205;28;9083;-60
2022/05/27 02:14:23;;;;;;;;;;;;;;;27.48;37.75;94867.59;5003254;28;7434;-60
2022/05/27 02:16:58;;;;;;;;;;;;;;;27.48;37.09;94875.88;5002975;28;9115;-60
2022/05/27 02:20:07;;;;;;;;;;;;;;;27.48;37.33;94871.13;5014548;28;9127;-60
2022/05/27 02:22:45;;;;;;;;;;;;;;;27.46;37.22;94867.38;5025520;28;7475;-61
2022/05/27 02:25:20;;;;;;;;;;;;;;;27.43;37.20;94874.66;5018823;28;7442;-60
2022/05/27 02:28:04;;;;;;;;;;;;;;;27.43;37.03;94876.66;5016730;28;7378;-60
2022/05/27 02:30:38;;;;;;;;;;;;;;;27.44;37.71;94873.41;5020777;28;7151;-60
2022/05/27 02:36:25;;;;;;;;;;;;;;;27.41;37.34;94879.94;5010739;28;7733;-60
2022/05/27 02:38:51;;;;;;;;;;;;;;;27.41;37.70;94877.19;5002579;28;7235;-60
2022/05/27 02:41:35;;;;;;;;;;;;;;;27.39;37.67;94870.66;5011651;28;9206;-60
2022/05/27 02:44:07;;;;;;;;;;;;;;;27.39;37.78;94871.44;5002580;28;7364;-60
2022/05/27 02:46:43;;;;;;;;;;;;;;;27.38;37.15;94872.69;5012853;28;7239;-60
2022/05/27 02:49:32;;;;;;;;;;;;;;;27.39;37.33;94870.66;4997300;28;8631;-61
2022/05/27 02:52:16;;;;;;;;;;;;;;;27.39;38.14;94876.19;5011378;28;8793;-60
2022/05/27 02:55:07;;;;;;;;;;;;;;;27.39;37.73;94871.44;5017996;28;9337;-60
2022/05/27 02:57:58;;;;;;;;;;;;;;;27.38;37.38;94878.19;5020913;28;9268;-60
2022/05/27 03:00:44;;;;;;;;;;;;;;;27.37;38.00;94881.47;5013059;28;6992;-60
2022/05/27 03:03:10;;;;;;;;;;;;;;;27.35;37.43;94876.47;4998700;28;7216;-60
2022/05/27 03:05:56;;;;;;;;;;;;;;;27.36;37.33;94880.72;5005378;28;7109;-60
2022/05/27 03:08:42;;;;;;;;;;;;;;;27.37;37.11;94882.25;4995993;28;7252;-60
2022/05/27 03:11:40;;;;;;;;;;;;;;;27.37;37.07;94878.72;4994776;28;8153;-60
2022/05/27 03:14:18;;;;;;;;;;;;;;;27.32;37.06;94877.47;5009640;28;8922;-60
2022/05/27 03:16:44;;;;;;;;;;;;;;;27.33;37.78;94878.97;5007385;28;8251;-60
2022/05/27 03:19:10;;;;;;;;;;;;;;;27.33;37.62;94878.97;4999130;28;7690;-60
2022/05/27 03:22:11;;;;;;;;;;;;;;;27.34;37.61;94885.97;5020917;28;9032;-60
2022/05/27 03:24:55;;;;;;;;;;;;;;;27.31;37.64;94887.03;5007411;28;7015;-60
2022/05/27 03:31:19;;;;;;;;;;;;;;;27.31;37.10;94883.50;4954604;28;7332;-60
2022/05/27 03:34:09;;;;;;;;;;;;;;;27.29;37.43;94884.03;4942811;28;7275;-60
2022/05/27 03:36:56;;;;;;;;;;;;;;;27.29;37.12;94883.25;4955182;28;7149;-60
2022/05/27 03:39:51;;;;;;;;;;;;;;;27.29;37.07;94884.03;4950193;28;7381;-60
2022/05/27 03:42:19;;;;;;;;;;;;;;;27.28;37.82;94871.47;4938470;28;9033;-60
2022/05/27 03:45:13;;;;;;;;;;;;;;;27.29;37.45;94880.50;4933646;28;7281;-60
2022/05/27 03:47:41;;;;;;;;;;;;;;;27.28;37.23;94879.75;4947601;28;8791;-60
2022/05/27 03:50:10;;;;;;;;;;;;;;;27.29;37.39;94877.75;4949803;28;7602;-60
2022/05/27 03:52:40;;;;;;;;;;;;;;;27.27;37.66;94888.53;4949319;28;9202;-61
2022/05/27 03:55:09;;;;;;;;;;;;;;;27.27;37.33;94888.53;4939536;28;8715;-60
2022/05/27 03:57:35;;;;;;;;;;;;;;;27.26;37.20;94882.25;4944025;28;8788;-60
2022/05/27 04:00:14;;;;;;;;;;;;;;;27.25;37.10;94872.47;4949444;28;7221;-60
2022/05/27 04:02:53;;;;;;;;;;;;;;;27.26;37.87;94879.50;4951766;28;7283;-60
2022/05/27 04:05:31;;;;;;;;;;;;;;;27.26;37.26;94879.50;4953456;28;7231;-60
2022/05/27 04:07:57;;;;;;;;;;;;;;;27.25;37.68;94886.28;4985651;28;7236;-60
2022/05/27 04:10:27;;;;;;;;;;;;;;;27.25;37.60;94880.03;5013752;28;7205;-60
2022/05/27 04:12:54;;;;;;;;;;;;;;;27.24;37.15;94879.25;5017206;28;7416;-60
2022/05/27 04:15:49;;;;;;;;;;;;;;;27.22;37.65;94876.25;5018255;28;6990;-60
2022/05/27 04:18:46;;;;;;;;;;;;;;;27.23;37.13;94877.03;4909933;29;7672;-60
2022/05/27 04:21:21;;;;;;;;;;;;;;;27.22;37.31;94873.50;4846019;29;7215;-60
2022/05/27 04:24:25;;;;;;;;;;;;;;;27.22;37.76;94870.75;4843603;29;9900;-60
2022/05/27 04:27:11;;;;;;;;;;;;;;;27.21;37.24;94879.53;4800063;29;9636;-60
2022/05/27 04:29:43;;;;;;;;;;;;;;;27.23;37.92;94888.06;4792412;29;7518;-60
2022/05/27 04:32:20;;;;;;;;;;;;;;;27.21;37.91;94887.84;4794618;29;7234;-60
2022/05/27 04:34:55;;;;;;;;;;;;;;;27.21;37.42;94894.09;4799771;29;6989;-60
2022/05/27 04:37:23;;;;;;;;;;;;;;;27.19;36.94;94891.09;4789375;29;7135;-60
2022/05/27 04:39:53;;;;;;;;;;;;;;;27.20;36.91;94887.06;4779175;29;8739;-60
2022/05/27 04:42:21;;;;;;;;;;;;;;;27.18;37.61;94881.31;4789413;29;7177;-60
2022/05/27 04:44:49;;;;;;;;;;;;;;;27.20;37.02;94892.59;4786036;29;8431;-60
2022/05/27 04:47:16;;;;;;;;;;;;;;;27.17;37.43;94884.56;4799069;29;9054;-60
2022/05/27 04:50:00;;;;;;;;;;;;;;;27.17;37.37;94893.59;4798913;29;9088;-61
2022/05/27 04:52:40;;;;;;;;;;;;;;;27.15;37.57;94898.88;4785954;29;7034;-60
2022/05/27 04:55:11;;;;;;;;;;;;;;;27.12;37.42;94894.38;4828217;29;7130;-60
2022/05/27 04:57:59;;;;;;;;;;;;;;;27.16;36.63;94900.41;4928128;28;9146;-60
2022/05/27 05:00:35;;;;;;;;;;;;;;;27.12;36.79;94891.63;5002060;28;7955;-60
2022/05/27 05:03:08;;;;;;;;;;;;;;;27.11;37.06;94890.13;5003524;28;7529;-60
2022/05/27 05:05:41;;;;;;;;;;;;;;;27.13;36.95;94892.38;5016081;28;7448;-60
2022/05/27 05:08:16;;;;;;;;;;;;;;;27.12;37.58;94880.56;5014767;28;7089;-60
2022/05/27 05:10:44;;;;;;;;;;;;;;;27.15;37.58;94876.03;5014992;28;8729;-60
2022/05/27 05:13:18;;;;;;;;;;;;;;;27.19;37.02;94874.50;5014677;28;7327;-60
2022/05/27 05:15:53;;;;;;;;;;;;;;;27.17;36.72;94871.50;5003091;28;9100;-60
2022/05/27 05:18:29;;;;;;;;;;;;;;;27.18;36.99;94877.78;5003447;28;7670;-60
2022/05/27 05:21:09;;;;;;;;;;;;;;;27.19;36.70;94882.78;5022130;28;7122;-60
2022/05/27 05:23:38;;;;;;;;;;;;;;;27.20;36.68;94881.56;5011001;28;7200;-60
2022/05/27 05:26:14;;;;;;;;;;;;;;;27.20;37.07;94881.56;5022903;28;8743;-60
2022/05/27 05:28:40;;;;;;;;;;;;;;;27.20;37.33;94880.78;5003182;28;7472;-60
2022/05/27 05:31:16;;;;;;;;;;;;;;;27.21;36.25;94874.75;5021273;28;7254;-60
2022/05/27 05:33:43;;;;;;;;;;;;;;;27.20;36.85;94876.03;5019708;28;8967;-60
2022/05/27 05:36:11;;;;;;;;;;;;;;;27.19;37.31;94880.03;5012248;28;6982;-60
2022/05/27 05:38:38;;;;;;;;;;;;;;;27.17;36.84;94885.31;5003712;28;8733;-60
2022/05/27 05:41:05;;;;;;;;;;;;;;;27.18;36.91;94891.59;4995047;28;7055;-60
2022/05/27 05:43:32;;;;;;;;;;;;;;;27.16;37.19;94878.31;5013740;28;8129;-60
2022/05/27 05:45:58;;;;;;;;;;;;;;;27.14;37.10;94875.31;5013502;28;7361;-60
2022/05/27 05:48:25;;;;;;;;;;;;;;;27.13;36.77;94871.03;5001912;28;7236;-60
2022/05/27 05:50:58;;;;;;;;;;;;;;;27.12;36.52;94874.31;5001892;28;9005;-60
2022/05/27 05:53:24;;;;;;;;;;;;;;;27.10;36.69;94876.84;4999744;28;7474;-60
2022/05/27 05:56:13;;;;;;;;;;;;;;;27.08;37.07;94874.56;5010815;28;9207;-60
2022/05/27 05:58:50;;;;;;;;;;;;;;;27.08;36.42;94880.09;5003047;28;8746;-60
2022/05/27 06:01:42;;;;;;;;;;;;;;;27.07;36.93;94880.59;5008883;28;9190;-60
2022/05/27 06:04:14;;;;;;;;;;;;;;;27.04;36.64;94876.84;5019299;28;7297;-60
2022/05/27 06:06:52;;;;;;;;;;;;;;;27.04;36.55;94876.84;4997392;28;7215;-60
2022/05/27 06:09:25;;;;;;;;;;;;;;;27.03;36.71;94886.41;5012883;28;8781;-60
2022/05/27 06:11:53;;;;;;;;;;;;;;;27.02;36.11;94882.13;5005948;28;7895;-60
2022/05/27 06:14:25;;;;;;;;;;;;;;;27.01;37.05;94886.16;5006256;28;9058;-60
2022/05/27 06:17:11;;;;;;;;;;;;;;;27.02;36.45;94882.13;5011909;28;7086;-60
2022/05/27 06:19:39;;;;;;;;;;;;;;;27.00;36.55;94884.66;5019173;28;7250;-60
2022/05/27 06:22:13;;;;;;;;;;;;;;;26.98;36.52;94891.94;5006515;28;7166;-60
2022/05/27 06:24:42;;;;;;;;;;;;;;;26.99;37.28;94894.19;5002359;28;9288;-60
2022/05/27 06:27:08;;;;;;;;;;;;;;;26.98;37.16;94897.44;5000163;28;9473;-60
2022/05/27 06:35:05;;;;;;;;;;;;;;;26.99;36.57;94891.41;5013778;28;7432;-60
2022/05/27 06:37:31;;;;;;;;;;;;;;;26.98;36.77;94889.94;5012556;28;7295;-60
2022/05/27 06:39:58;;;;;;;;;;;;;;;26.97;37.29;94880.13;5006582;28;7336;-60
2022/05/27 06:42:24;;;;;;;;;;;;;;;26.97;37.08;94891.16;4994848;28;7076;-60
2022/05/27 06:44:50;;;;;;;;;;;;;;;26.98;37.57;94889.94;4999041;28;9247;-60
2022/05/27 06:47:18;;;;;;;;;;;;;;;26.99;37.34;94894.19;5009730;28;9189;-60
2022/05/27 06:49:44;;;;;;;;;;;;;;;26.99;36.98;94890.69;5004631;28;9070;-60
2022/05/27 06:52:13;;;;;;;;;;;;;;;27.00;37.54;94892.16;4993036;28;8748;-61
2022/05/27 06:54:45;;;;;;;;;;;;;;;27.00;37.39;94894.94;5011728;28;7288;-60
2022/05/27 06:57:35;;;;;;;;;;;;;;;27.01;36.91;94897.22;5023819;28;7276;-60
2022/05/27 07:00:12;;;;;;;;;;;;;;;27.00;37.57;94898.44;5000805;28;9256;-60
2022/05/27 07:02:39;;;;;;;;;;;;;;;27.00;37.57;94895.69;5020353;28;9119;-59
2022/05/27 07:05:15;;;;;;;;;;;;;;;27.00;37.59;94898.44;5021785;28;9092;-61
2022/05/27 07:07:58;;;;;;;;;;;;;;;27.02;37.15;94898.69;5024871;28;9118;-61
2022/05/27 07:10:36;;;;;;;;;;;;;;;27.03;37.85;94888.41;5011062;28;7510;-61
2022/05/27 07:13:03;;;;;;;;;;;;;;;27.02;38.01;94887.66;5017560;28;8236;-61
2022/05/27 07:15:32;;;;;;;;;;;;;;;27.01;37.54;94888.16;5021595;28;7061;-61
2022/05/27 07:18:02;;;;;;;;;;;;;;;27.01;37.17;94896.44;5025082;28;7062;-61
2022/05/27 07:20:36;;;;;;;;;;;;;;;27.00;38.03;94892.94;5011661;28;8721;-61
2022/05/27 07:23:09;;;;;;;;;;;;;;;26.99;37.71;94894.19;4992249;28;9821;-61
2022/05/27 07:25:49;;;;;;;;;;;;;;;26.99;37.20;94883.13;5012603;28;7007;-61
2022/05/27 07:28:22;;;;;;;;;;;;;;;27.02;37.02;94878.59;5012790;28;7266;-61
2022/05/27 07:30:48;;;;;;;;;;;;;;;27.03;38.79;94869.06;5010540;28;7310;-61
2022/05/27 07:33:15;;;;;;;;;;;;;;;27.03;37.41;94864.31;5007727;28;7016;-60
2022/05/27 07:35:43;;;;;;;;;;;;;;;27.03;37.60;94867.06;5018885;28;9022;-60
2022/05/27 07:38:09;;;;;;;;;;;;;;;27.02;37.19;94862.81;5015733;28;7012;-60
2022/05/27 07:40:35;;;;;;;;;;;;;;;27.01;37.15;94866.06;5010857;28;7224;-61
2022/05/27 07:43:04;;;;;;;;;;;;;;;27.00;36.81;94854.28;5000738;28;7021;-60
2022/05/27 07:45:31;;;;;;;;;;;;;;;27.00;36.55;94862.56;5003941;28;7066;-60
2022/05/27 07:47:59;;;;;;;;;;;;;;;27.00;36.73;94867.31;5007352;28;10130;-61
2022/05/27 07:50:26;;;;;;;;;;;;;;;26.98;36.40;94870.59;4995423;28;7279;-61
2022/05/27 07:52:54;;;;;;;;;;;;;;;26.98;36.19;94867.09;5012356;28;9449;-61
2022/05/27 07:55:21;;;;;;;;;;;;;;;26.96;36.44;94867.59;5019897;28;9372;-61
2022/05/27 07:57:48;;;;;;;;;;;;;;;26.96;36.06;94867.59;5018392;28;9153;-61
2022/05/27 08:00:31;;;;;;;;;;;;;;;26.95;36.71;94871.59;5012738;28;9161;-61
2022/05/27 08:02:57;;;;;;;;;;;;;;;26.92;37.15;94878.16;5027952;28;9539;-61
2022/05/27 08:05:26;;;;;;;;;;;;;;;26.91;37.07;94876.66;5006266;28;9196;-61
2022/05/27 08:07:59;;;;;;;;;;;;;;;26.92;37.10;94871.88;5012833;28;7211;-61
2022/05/27 08:10:34;;;;;;;;;;;;;;;26.92;37.18;94878.16;5006754;28;7236;-61
2022/05/27 08:13:01;;;;;;;;;;;;;;;26.96;36.49;94869.59;5000191;28;7062;-60
2022/05/27 08:15:28;;;;;;;;;;;;;;;26.97;36.12;94860.81;5013016;28;7937;-61
2022/05/27 08:18:06;;;;;;;;;;;;;;;26.98;36.39;94858.81;5004956;28;9334;-61
2022/05/27 08:20:43;;;;;;;;;;;;;;;26.98;37.11;94858.81;5018937;28;7184;-61
2022/05/27 08:23:17;;;;;;;;;;;;;;;26.99;37.06;94857.56;5008467;28;9116;-61
2022/05/27 08:25:58;;;;;;;;;;;;;;;26.97;36.37;94841.47;5006984;28;9056;-61
2022/05/27 08:28:24;;;;;;;;;;;;;;;26.99;37.64;94841.00;5005927;28;9047;-60
2022/05/27 08:30:55;;;;;;;;;;;;;;;26.97;36.87;94844.25;4978592;28;7523;-60
2022/05/27 08:33:23;;;;;;;;;;;;;;;27.00;37.27;94848.00;5008439;28;9116;-60
2022/05/27 08:38:38;;;;;;;;;;;;;;;26.99;36.90;94841.72;5010596;28;8398;-60
2022/05/27 08:41:51;;;;;;;;;;;;;;;27.02;37.18;94843.47;5009136;28;7258;-60
2022/05/27 08:44:45;;;;;;;;;;;;;;;27.01;36.58;94839.22;4933017;28;9966;-60
2022/05/27 08:47:41;;;;;;;;;;;;;;;27.02;37.28;94839.97;4941687;28;7240;-59
2022/05/27 08:50:13;;;;;;;;;;;;;;;27.01;37.39;94844.75;4948670;28;7725;-60
2022/05/27 08:52:49;;;;;;;;;;;;;;;27.03;36.86;94853.28;4926353;28;9181;-60
2022/05/27 09:01:10;;;;;;;;;;;;;;;27.02;36.78;94843.47;4943267;28;8101;-60
2022/05/27 09:04:11;;;;;;;;;;;;;;;27.02;37.20;94837.19;4932874;29;7159;-60
2022/05/27 09:07:06;;;;;;;;;;;;;;;27.03;36.87;94842.22;4930069;29;7249;-60
2022/05/27 09:09:37;;;;;;;;;;;;;;;27.04;36.48;94840.19;4879166;29;9489;-60
2022/05/27 09:12:38;;;;;;;;;;;;;;;27.05;36.77;94836.19;4880199;29;7003;-60
2022/05/27 09:15:17;;;;;;;;;;;;;;;27.06;36.73;94834.91;4901415;29;7527;-60
2022/05/27 09:17:54;;;;;;;;;;;;;;;27.05;36.61;94836.19;4895409;29;8982;-60
2022/05/27 09:20:38;;;;;;;;;;;;;;;27.04;36.83;94832.66;4911723;28;7350;-60
2022/05/27 09:23:32;;;;;;;;;;;;;;;27.06;37.23;94829.38;4938639;28;7407;-60
2022/05/27 09:26:19;;;;;;;;;;;;;;;27.06;37.14;94821.88;4943571;28;7245;-60
2022/05/27 09:29:38;;;;;;;;;;;;;;;27.06;37.30;94819.09;4952038;28;7319;-60
2022/05/27 09:32:51;;;;;;;;;;;;;;;27.09;36.78;94825.63;4897352;29;7246;-60
2022/05/27 09:35:20;;;;;;;;;;;;;;;27.11;37.14;94828.63;4872749;29;8865;-60
2022/05/27 09:37:50;;;;;;;;;;;;;;;27.11;36.56;94828.63;4857915;29;6993;-60
2022/05/27 09:40:25;;;;;;;;;;;;;;;27.12;36.71;94832.91;4870914;29;9529;-60
2022/05/27 09:43:13;;;;;;;;;;;;;;;27.11;36.84;94829.38;4855693;29;7528;-60
2022/05/27 09:45:40;;;;;;;;;;;;;;;27.13;37.24;94826.09;4870388;29;7222;-60
2022/05/27 09:48:08;;;;;;;;;;;;;;;27.13;36.87;94823.34;4870176;29;9221;-60
2022/05/27 09:50:49;;;;;;;;;;;;;;;27.16;36.41;94825.84;4853691;29;7256;-60
2022/05/27 09:53:25;;;;;;;;;;;;;;;27.16;37.22;94831.38;4875240;29;9095;-60
2022/05/27 09:56:31;;;;;;;;;;;;;;;27.17;36.48;94823.81;4864468;29;9794;-60
2022/05/27 09:59:18;;;;;;;;;;;;;;;27.18;36.78;94826.09;4856629;29;9091;-60
2022/05/27 10:02:19;;;;;;;;;;;;;;;27.19;37.37;94824.03;4861733;29;7839;-60
2022/05/27 10:05:26;;;;;;;;;;;;;;;27.19;37.15;94818.53;4875268;29;6999;-60
2022/05/27 10:08:00;;;;;;;;;;;;;;;27.17;36.63;94821.81;4855755;29;9071;-60
2022/05/27 10:10:28;;;;;;;;;;;;;;;27.17;36.87;94810.75;4924636;29;9124;-60
2022/05/27 10:13:34;;;;;;;;;;;;;;;27.19;36.71;94797.19;4931652;28;9473;-60
2022/05/27 10:16:11;;;;;;;;;;;;;;;27.19;37.04;94793.66;4918531;29;9130;-60
2022/05/27 10:18:46;;;;;;;;;;;;;;;27.18;37.31;94795.72;4910044;29;7497;-60
2022/05/27 10:21:30;;;;;;;;;;;;;;;27.21;36.88;94785.66;4897689;29;9018;-60
2022/05/27 10:24:19;;;;;;;;;;;;;;;27.21;36.92;94789.13;4907567;29;9445;-60
2022/05/27 10:26:45;;;;;;;;;;;;;;;27.21;36.78;94782.88;4912388;29;8691;-60
2022/05/27 10:29:15;;;;;;;;;;;;;;;27.22;36.65;94784.38;4910810;29;8962;-60
2022/05/27 10:32:07;;;;;;;;;;;;;;;27.23;36.75;94786.63;4926494;29;6868;-60
2022/05/27 10:34:42;;;;;;;;;;;;;;;27.23;36.58;94786.63;4915905;29;9041;-62
2022/05/27 10:37:33;;;;;;;;;;;;;;;27.24;36.38;94774.31;4925575;29;7269;-60
2022/05/27 10:40:02;;;;;;;;;;;;;;;27.24;36.79;94782.59;4922793;29;7642;-60
2022/05/27 10:42:39;;;;;;;;;;;;;;;27.24;36.60;94781.84;4941355;28;7252;-60
2022/05/27 10:45:25;;;;;;;;;;;;;;;27.26;36.79;94782.84;4948237;28;7242;-60
2022/05/27 10:48:13;;;;;;;;;;;;;;;27.27;36.73;94780.84;4979001;28;8743;-60
2022/05/27 10:50:42;;;;;;;;;;;;;;;27.27;36.51;94781.59;5009936;28;8838;-60
2022/05/27 10:53:08;;;;;;;;;;;;;;;27.28;37.09;94776.78;5006376;28;9536;-60
2022/05/27 10:56:10;;;;;;;;;;;;;;;27.28;36.87;94776.78;5021102;28;9057;-60
2022/05/27 11:02:59;;;;;;;;;;;;;;;27.30;37.10;94775.03;4947757;29;9120;-60
2022/05/27 11:05:49;;;;;;;;;;;;;;;27.30;37.16;94774.25;4819802;29;7973;-60
2022/05/27 11:08:27;;;;;;;;;;;;;;;27.31;37.07;94770.25;4835174;29;9134;-60
2022/05/27 11:11:17;;;;;;;;;;;;;;;27.33;36.43;94767.72;4835305;29;9067;-60
2022/05/27 11:17:27;;;;;;;;;;;;;;;27.35;36.93;94756.91;4837442;29;7387;-60
2022/05/27 11:20:11;;;;;;;;;;;;;;;27.35;36.86;94754.16;4817090;29;9113;-60
2022/05/27 11:23:11;;;;;;;;;;;;;;;27.37;36.44;94751.66;4813500;29;7470;-60
2022/05/27 11:25:59;;;;;;;;;;;;;;;27.37;37.02;94746.88;4831662;29;7087;-60
2022/05/27 11:29:00;;;;;;;;;;;;;;;27.38;37.30;94742.84;4835143;29;8851;-60
2022/05/27 11:31:40;;;;;;;;;;;;;;;27.38;36.43;94740.06;4825754;29;9423;-60
2022/05/27 11:34:24;;;;;;;;;;;;;;;27.39;37.38;94730.53;4812524;29;8996;-60
2022/05/27 11:36:53;;;;;;;;;;;;;;;27.41;37.29;94739.06;4870079;29;7035;-60
2022/05/27 11:39:39;;;;;;;;;;;;;;;27.40;36.67;94745.88;4895961;29;7141;-60
2022/05/27 11:42:08;;;;;;;;;;;;;;;27.43;37.30;94733.78;4970424;28;7289;-60
2022/05/27 11:44:40;;;;;;;;;;;;;;;27.44;36.80;94738.03;4999366;28;7247;-60
2022/05/27 11:47:55;;;;;;;;;;;;;;;27.45;36.76;94734.00;5004902;28;7267;-60
2022/05/27 11:50:33;;;;;;;;;;;;;;;27.48;36.96;94732.22;5012332;28;7232;-60
2022/05/27 11:53:29;;;;;;;;;;;;;;;27.49;36.60;94742.03;5019598;28;7278;-60
2022/05/27 11:56:14;;;;;;;;;;;;;;;27.49;37.13;94728.22;5008206;28;7214;-60
2022/05/27 11:59:03;;;;;;;;;;;;;;;27.51;36.43;94731.94;4999433;28;8758;-60
2022/05/27 12:02:14;;;;;;;;;;;;;;;27.51;36.93;94723.66;5014387;28;7288;-60
2022/05/27 12:05:01;;;;;;;;;;;;;;;27.53;36.66;94725.91;4964409;28;9031;-60
2022/05/27 12:07:45;;;;;;;;;;;;;;;27.55;37.20;94724.13;4944003;28;7255;-60
2022/05/27 12:11:09;;;;;;;;;;;;;;;27.56;37.19;94720.09;4953817;28;8960;-60
2022/05/27 12:13:47;;;;;;;;;;;;;;;27.58;36.96;94719.56;4963782;28;9116;-60
2022/05/27 12:16:37;;;;;;;;;;;;;;;27.59;36.75;94719.06;4955069;28;9319;-60
2022/05/27 12:19:10;;;;;;;;;;;;;;;27.60;37.14;94715.03;4969893;28;7867;-60
2022/05/27 12:22:06;;;;;;;;;;;;;;;27.61;36.87;94704.72;4964359;28;8410;-60
2022/05/27 12:24:41;;;;;;;;;;;;;;;27.61;36.82;94701.97;4965808;28;9279;-60
2022/05/27 12:27:15;;;;;;;;;;;;;;;27.66;36.96;94711.47;4963262;28;9063;-60
2022/05/27 12:29:47;;;;;;;;;;;;;;;27.68;36.88;94706.19;4948616;28;9316;-60
2022/05/27 12:32:16;;;;;;;;;;;;;;;27.69;37.41;94702.88;4955539;28;8680;-60
2022/05/27 12:34:48;;;;;;;;;;;;;;;27.69;36.97;94704.91;4953915;28;9379;-60
2022/05/27 12:37:27;;;;;;;;;;;;;;;27.69;37.31;94711.19;4962006;28;7648;-60
2022/05/27 12:40:18;;;;;;;;;;;;;;;27.73;37.31;94705.38;5002544;28;7252;-60
2022/05/27 12:42:44;;;;;;;;;;;;;;;27.74;36.85;94695.81;5009612;28;7033;-60
2022/05/27 12:45:24;;;;;;;;;;;;;;;27.76;37.43;94691.28;4996591;28;9114;-60
2022/05/27 12:47:58;;;;;;;;;;;;;;;27.80;37.67;94699.25;5002528;28;7254;-60
2022/05/27 12:50:37;;;;;;;;;;;;;;;27.82;36.99;94694.00;5003127;28;9429;-60
2022/05/27 12:53:20;;;;;;;;;;;;;;;27.85;36.80;94690.94;5019246;28;9110;-60
2022/05/27 13:02:32;;;;;;;;;;;;;;;27.92;36.86;94689.59;5014085;28;6992;-60
2022/05/27 13:05:02;;;;;;;;;;;;;;;27.92;36.59;94678.53;4936738;28;8446;-60
2022/05/27 13:07:33;;;;;;;;;;;;;;;27.94;36.88;94687.06;4952468;28;7065;-60
2022/05/27 13:10:28;;;;;;;;;;;;;;;27.96;36.80;94687.28;4952357;28;7173;-60
2022/05/27 13:13:15;;;;;;;;;;;;;;;27.97;36.81;94683.28;4941583;28;7452;-60
2022/05/27 13:15:53;;;;;;;;;;;;;;;27.96;36.93;94674.22;4952299;28;7159;-60
2022/05/27 13:18:30;;;;;;;;;;;;;;;27.97;36.88;94678.50;4936593;28;7397;-60
2022/05/27 13:21:40;;;;;;;;;;;;;;;27.98;36.96;94677.25;4933213;28;7243;-60
2022/05/27 13:24:38;;;;;;;;;;;;;;;28.03;36.60;94672.91;4934802;28;7511;-60
2022/05/27 13:27:41;;;;;;;;;;;;;;;28.01;37.26;94678.97;4932842;29;7054;-60
2022/05/27 13:31:03;;;;;;;;;;;;;;;28.03;36.92;94668.13;4898881;29;9111;-60
2022/05/27 13:33:44;;;;;;;;;;;;;;;28.01;36.99;94664.41;4912505;29;6986;-60
2022/05/27 13:36:33;;;;;;;;;;;;;;;27.99;37.02;94661.41;4914067;29;7283;-60
2022/05/27 13:39:05;;;;;;;;;;;;;;;28.04;37.18;94663.34;4899188;29;9618;-60
2022/05/27 13:41:41;;;;;;;;;;;;;;;28.01;37.07;94664.41;4934019;28;9043;-60
2022/05/27 13:44:12;;;;;;;;;;;;;;;28.04;37.22;94658.56;4952362;28;7284;-60
2022/05/27 13:46:52;;;;;;;;;;;;;;;28.05;37.07;94656.56;4959392;28;9442;-60
2022/05/27 13:49:28;;;;;;;;;;;;;;;28.07;36.96;94656.78;4936189;28;7028;-60
2022/05/27 13:52:11;;;;;;;;;;;;;;;28.07;36.67;94657.53;4963988;28;8000;-60
2022/05/27 13:54:58;;;;;;;;;;;;;;;28.10;36.82;94658.50;4968561;28;7238;-60
2022/05/27 13:57:32;;;;;;;;;;;;;;;28.10;37.04;94650.22;4937069;28;7265;-60
2022/05/27 14:00:37;;;;;;;;;;;;;;;28.13;36.93;94651.91;4954006;28;9065;-60
2022/05/27 14:03:33;;;;;;;;;;;;;;;28.12;37.04;94648.41;4954293;28;7471;-60
2022/05/27 14:06:03;;;;;;;;;;;;;;;28.16;37.16;94650.88;4967905;28;6993;-60
2022/05/27 14:08:36;;;;;;;;;;;;;;;28.16;36.70;94648.13;4952435;28;7258;-60
2022/05/27 14:11:15;;;;;;;;;;;;;;;28.17;37.07;94657.91;4954965;28;9152;-60
2022/05/27 14:13:50;;;;;;;;;;;;;;;28.18;36.83;94640.06;4955094;28;7248;-60
2022/05/27 14:16:43;;;;;;;;;;;;;;;28.22;36.98;94640.50;4953340;28;7622;-60
2022/05/27 14:19:10;;;;;;;;;;;;;;;28.23;36.84;94653.06;4952536;28;7070;-60
2022/05/27 14:24:45;;;;;;;;;;;;;;;28.25;37.10;94645.00;4970495;28;7265;-60
2022/05/27 14:27:26;;;;;;;;;;;;;;;28.27;36.95;94642.47;4969630;28;9130;-60
2022/05/27 14:29:55;;;;;;;;;;;;;;;28.28;36.94;94638.41;4943959;28;7059;-60
2022/05/27 14:32:26;;;;;;;;;;;;;;;28.30;36.91;94635.84;4952387;28;7316;-60
2022/05/27 14:34:58;;;;;;;;;;;;;;;28.31;36.79;94631.84;4951178;28;7314;-60
2022/05/27 14:37:47;;;;;;;;;;;;;;;28.34;36.77;94625.25;4978092;28;9098;-60
2022/05/27 14:40:25;;;;;;;;;;;;;;;28.35;36.75;94635.03;4998958;28;7219;-60